sensor_id;sensor_type;location;lat;lon;timestamp;P1;durP1;ratioP1;P2;durP2;ratioP2
57321;SDS011;43159;51.006;18.224;2023-08-20T00:03:41;16.20;;;11.10;;
57321;SDS011;43159;51.006;18.224;2023-08-20T00:13:26;20.60;;;13.60;;
57321;SDS011;43159;51.006;18.224;2023-08-20T00:30:29;22.00;;;16.80;;
57321;SDS011;43159;51.006;18.224;2023-08-20T00:40:12;25.00;;;20.10;;
57321;SDS011;43159;51.006;18.224;2023-08-20T00:49:55;29.00;;;17.20;;
57321;SDS011;43159;51.006;18.224;2023-08-20T00:59:39;20.20;;;15.00;;
57321;SDS011;43159;51.006;18.224;2023-08-20T01:19:18;22.80;;;17.60;;
57321;SDS011;43159;51.006;18.224;2023-08-20T01:29:12;22.70;;;15.90;;
57321;SDS011;43159;51.006;18.224;2023-08-20T01:38:55;23.70;;;18.30;;
57321;SDS011;43159;51.006;18.224;2023-08-20T01:48:38;23.60;;;14.70;;
57321;SDS011;43159;51.006;18.224;2023-08-20T01:58:20;30.80;;;18.60;;
57321;SDS011;43159;51.006;18.224;2023-08-20T02:08:03;22.70;;;14.40;;
57321;SDS011;43159;51.006;18.224;2023-08-20T02:17:47;20.50;;;14.00;;
57321;SDS011;43159;51.006;18.224;2023-08-20T02:27:29;16.40;;;9.40;;
57321;SDS011;43159;51.006;18.224;2023-08-20T02:37:14;31.90;;;16.40;;
57321;SDS011;43159;51.006;18.224;2023-08-20T02:46:56;26.10;;;16.50;;
57321;SDS011;43159;51.006;18.224;2023-08-20T02:56:38;22.90;;;16.80;;
57321;SDS011;43159;51.006;18.224;2023-08-20T03:06:21;22.40;;;16.80;;
57321;SDS011;43159;51.006;18.224;2023-08-20T03:16:03;20.50;;;14.70;;
57321;SDS011;43159;51.006;18.224;2023-08-20T03:25:46;15.20;;;9.80;;
57321;SDS011;43159;51.006;18.224;2023-08-20T03:35:29;20.60;;;13.90;;
57321;SDS011;43159;51.006;18.224;2023-08-20T03:45:11;23.90;;;14.80;;
57321;SDS011;43159;51.006;18.224;2023-08-20T04:02:11;17.80;;;13.70;;
57321;SDS011;43159;51.006;18.224;2023-08-20T04:11:54;18.70;;;14.00;;
57321;SDS011;43159;51.006;18.224;2023-08-20T04:21:36;26.50;;;16.70;;
57321;SDS011;43159;51.006;18.224;2023-08-20T04:31:19;22.20;;;16.40;;
57321;SDS011;43159;51.006;18.224;2023-08-20T04:41:02;20.50;;;16.10;;
57321;SDS011;43159;51.006;18.224;2023-08-20T04:50:44;30.20;;;19.80;;
57321;SDS011;43159;51.006;18.224;2023-08-20T04:58:01;27.50;;;22.10;;
57321;SDS011;43159;51.006;18.224;2023-08-20T05:07:43;25.40;;;13.70;;
57321;SDS011;43159;51.006;18.224;2023-08-20T05:17:26;22.00;;;14.20;;
57321;SDS011;43159;51.006;18.224;2023-08-20T05:27:14;20.30;;;14.30;;
57321;SDS011;43159;51.006;18.224;2023-08-20T05:36:59;18.70;;;14.60;;
57321;SDS011;43159;51.006;18.224;2023-08-20T05:46:44;21.10;;;14.20;;
57321;SDS011;43159;51.006;18.224;2023-08-20T05:54:00;22.60;;;18.30;;
57321;SDS011;43159;51.006;18.224;2023-08-20T06:03:42;16.80;;;12.50;;
57321;SDS011;43159;51.006;18.224;2023-08-20T06:20:41;17.80;;;12.70;;
57321;SDS011;43159;51.006;18.224;2023-08-20T06:30:23;15.40;;;11.80;;
57321;SDS011;43159;51.006;18.224;2023-08-20T06:40:06;18.70;;;12.10;;
57321;SDS011;43159;51.006;18.224;2023-08-20T06:49:49;16.40;;;10.20;;
57321;SDS011;43159;51.006;18.224;2023-08-20T06:59:32;13.20;;;10.30;;
57321;SDS011;43159;51.006;18.224;2023-08-20T07:09:15;15.00;;;10.40;;
57321;SDS011;43159;51.006;18.224;2023-08-20T07:26:15;10.70;;;6.70;;
57321;SDS011;43159;51.006;18.224;2023-08-20T07:36:13;13.50;;;9.20;;
57321;SDS011;43159;51.006;18.224;2023-08-20T07:45:58;13.10;;;7.70;;
57321;SDS011;43159;51.006;18.224;2023-08-20T07:55:40;16.80;;;7.20;;
57321;SDS011;43159;51.006;18.224;2023-08-20T08:12:39;10.00;;;5.50;;
57321;SDS011;43159;51.006;18.224;2023-08-20T08:22:23;13.30;;;6.40;;
57321;SDS011;43159;51.006;18.224;2023-08-20T08:32:05;7.90;;;3.30;;
57321;SDS011;43159;51.006;18.224;2023-08-20T08:41:49;16.70;;;6.10;;
57321;SDS011;43159;51.006;18.224;2023-08-20T08:51:34;9.70;;;4.40;;
57321;SDS011;43159;51.006;18.224;2023-08-20T09:01:19;11.30;;;5.00;;
57321;SDS011;43159;51.006;18.224;2023-08-20T09:11:02;9.30;;;5.30;;
57321;SDS011;43159;51.006;18.224;2023-08-20T09:21:05;12.10;;;5.00;;
57321;SDS011;43159;51.006;18.224;2023-08-20T09:30:58;9.10;;;5.20;;
57321;SDS011;43159;51.006;18.224;2023-08-20T09:40:47;7.60;;;2.50;;
57321;SDS011;43159;51.006;18.224;2023-08-20T09:50:32;17.20;;;5.80;;
57321;SDS011;43159;51.006;18.224;2023-08-20T10:00:28;7.60;;;4.70;;
57321;SDS011;43159;51.006;18.224;2023-08-20T10:10:12;9.10;;;4.90;;
57321;SDS011;43159;51.006;18.224;2023-08-20T10:20:00;8.50;;;3.90;;
57321;SDS011;43159;51.006;18.224;2023-08-20T10:29:57;6.10;;;3.50;;
57321;SDS011;43159;51.006;18.224;2023-08-20T10:40:02;11.00;;;4.10;;
57321;SDS011;43159;51.006;18.224;2023-08-20T10:49:54;12.00;;;5.00;;
57321;SDS011;43159;51.006;18.224;2023-08-20T10:59:38;9.50;;;4.50;;
57321;SDS011;43159;51.006;18.224;2023-08-20T11:09:26;9.20;;;4.10;;
57321;SDS011;43159;51.006;18.224;2023-08-20T11:19:11;14.70;;;5.30;;
57321;SDS011;43159;51.006;18.224;2023-08-20T11:28:56;7.20;;;3.40;;
57321;SDS011;43159;51.006;18.224;2023-08-20T11:38:54;10.90;;;5.20;;
57321;SDS011;43159;51.006;18.224;2023-08-20T11:58:52;9.60;;;4.40;;
57321;SDS011;43159;51.006;18.224;2023-08-20T12:01:23;10.00;;;5.10;;
57321;SDS011;43159;51.006;18.224;2023-08-20T12:11:09;15.20;;;3.80;;
57321;SDS011;43159;51.006;18.224;2023-08-20T12:20:52;8.60;;;4.10;;
57321;SDS011;43159;51.006;18.224;2023-08-20T12:30:34;9.10;;;4.40;;
57321;SDS011;43159;51.006;18.224;2023-08-20T12:40:18;9.60;;;4.40;;
57321;SDS011;43159;51.006;18.224;2023-08-20T12:50:01;12.00;;;4.50;;
57321;SDS011;43159;51.006;18.224;2023-08-20T12:59:46;11.00;;;3.70;;
57321;SDS011;43159;51.006;18.224;2023-08-20T13:09:29;10.40;;;4.00;;
57321;SDS011;43159;51.006;18.224;2023-08-20T13:19:15;9.00;;;3.80;;
57321;SDS011;43159;51.006;18.224;2023-08-20T13:29:01;10.40;;;4.10;;
57321;SDS011;43159;51.006;18.224;2023-08-20T13:38:45;8.80;;;4.60;;
57321;SDS011;43159;51.006;18.224;2023-08-20T13:48:27;9.00;;;3.60;;
57321;SDS011;43159;51.006;18.224;2023-08-20T13:58:09;9.80;;;3.90;;
57321;SDS011;43159;51.006;18.224;2023-08-20T14:07:54;11.30;;;4.00;;
57321;SDS011;43159;51.006;18.224;2023-08-20T14:17:36;9.90;;;4.00;;
57321;SDS011;43159;51.006;18.224;2023-08-20T14:27:19;3.00;;;1.70;;
57321;SDS011;43159;51.006;18.224;2023-08-20T14:37:03;10.50;;;5.00;;
57321;SDS011;43159;51.006;18.224;2023-08-20T14:46:48;8.70;;;3.90;;
57321;SDS011;43159;51.006;18.224;2023-08-20T14:56:30;9.70;;;4.50;;
57321;SDS011;43159;51.006;18.224;2023-08-20T15:06:13;7.80;;;2.50;;
57321;SDS011;43159;51.006;18.224;2023-08-20T15:15:57;11.50;;;5.30;;
57321;SDS011;43159;51.006;18.224;2023-08-20T15:25:47;14.00;;;7.50;;
57321;SDS011;43159;51.006;18.224;2023-08-20T15:35:32;17.50;;;5.70;;
57321;SDS011;43159;51.006;18.224;2023-08-20T15:45:15;13.70;;;7.00;;
57321;SDS011;43159;51.006;18.224;2023-08-20T15:54:58;7.80;;;2.90;;
57321;SDS011;43159;51.006;18.224;2023-08-20T16:04:42;10.70;;;4.70;;
57321;SDS011;43159;51.006;18.224;2023-08-20T16:14:25;9.10;;;4.10;;
57321;SDS011;43159;51.006;18.224;2023-08-20T16:24:08;9.80;;;4.70;;
57321;SDS011;43159;51.006;18.224;2023-08-20T16:33:55;13.60;;;4.90;;
57321;SDS011;43159;51.006;18.224;2023-08-20T16:43:37;11.00;;;5.00;;
57321;SDS011;43159;51.006;18.224;2023-08-20T16:53:24;9.40;;;4.50;;
57321;SDS011;43159;51.006;18.224;2023-08-20T17:03:11;17.50;;;4.40;;
57321;SDS011;43159;51.006;18.224;2023-08-20T17:12:54;7.80;;;3.40;;
57321;SDS011;43159;51.006;18.224;2023-08-20T17:22:37;9.20;;;4.60;;
57321;SDS011;43159;51.006;18.224;2023-08-20T17:32:19;21.30;;;4.60;;
57321;SDS011;43159;51.006;18.224;2023-08-20T17:42:01;12.10;;;4.70;;
57321;SDS011;43159;51.006;18.224;2023-08-20T17:51:43;18.20;;;4.60;;
57321;SDS011;43159;51.006;18.224;2023-08-20T18:01:37;14.60;;;7.30;;
57321;SDS011;43159;51.006;18.224;2023-08-20T18:11:20;12.80;;;5.40;;
57321;SDS011;43159;51.006;18.224;2023-08-20T18:21:02;9.90;;;4.80;;
57321;SDS011;43159;51.006;18.224;2023-08-20T18:30:48;10.30;;;4.90;;
57321;SDS011;43159;51.006;18.224;2023-08-20T18:40:35;9.90;;;5.20;;
57321;SDS011;43159;51.006;18.224;2023-08-20T18:50:17;13.20;;;5.70;;
57321;SDS011;43159;51.006;18.224;2023-08-20T18:59:59;11.90;;;5.70;;
57321;SDS011;43159;51.006;18.224;2023-08-20T19:09:47;9.60;;;5.40;;
57321;SDS011;43159;51.006;18.224;2023-08-20T19:19:30;17.40;;;9.70;;
57321;SDS011;43159;51.006;18.224;2023-08-20T19:29:12;11.30;;;7.00;;
57321;SDS011;43159;51.006;18.224;2023-08-20T19:38:57;13.60;;;7.70;;
57321;SDS011;43159;51.006;18.224;2023-08-20T19:48:39;11.80;;;7.10;;
57321;SDS011;43159;51.006;18.224;2023-08-20T19:58:23;11.70;;;6.80;;
57321;SDS011;43159;51.006;18.224;2023-08-20T20:08:08;12.20;;;6.60;;
57321;SDS011;43159;51.006;18.224;2023-08-20T20:17:50;14.20;;;8.20;;
57321;SDS011;43159;51.006;18.224;2023-08-20T20:27:32;13.90;;;8.10;;
57321;SDS011;43159;51.006;18.224;2023-08-20T20:37:24;12.30;;;7.60;;
57321;SDS011;43159;51.006;18.224;2023-08-20T20:47:06;14.00;;;8.70;;
57321;SDS011;43159;51.006;18.224;2023-08-20T20:56:49;16.10;;;9.40;;
57321;SDS011;43159;51.006;18.224;2023-08-20T21:06:40;16.70;;;9.30;;
57321;SDS011;43159;51.006;18.224;2023-08-20T21:16:25;14.30;;;9.60;;
57321;SDS011;43159;51.006;18.224;2023-08-20T21:26:09;10.60;;;5.40;;
57321;SDS011;43159;51.006;18.224;2023-08-20T21:35:52;18.90;;;10.00;;
57321;SDS011;43159;51.006;18.224;2023-08-20T21:45:34;15.70;;;9.70;;
57321;SDS011;43159;51.006;18.224;2023-08-20T21:55:17;13.90;;;8.80;;
57321;SDS011;43159;51.006;18.224;2023-08-20T22:05:14;15.50;;;9.90;;
57321;SDS011;43159;51.006;18.224;2023-08-20T22:14:59;16.20;;;9.40;;
57321;SDS011;43159;51.006;18.224;2023-08-20T22:24:42;15.00;;;9.80;;
57321;SDS011;43159;51.006;18.224;2023-08-20T22:34:24;21.60;;;10.70;;
57321;SDS011;43159;51.006;18.224;2023-08-20T22:44:08;15.60;;;10.30;;
57321;SDS011;43159;51.006;18.224;2023-08-20T22:53:50;12.20;;;6.70;;
57321;SDS011;43159;51.006;18.224;2023-08-20T23:03:39;16.90;;;9.50;;
57321;SDS011;43159;51.006;18.224;2023-08-20T23:13:22;27.00;;;11.00;;
57321;SDS011;43159;51.006;18.224;2023-08-20T23:23:04;17.50;;;12.30;;
57321;SDS011;43159;51.006;18.224;2023-08-20T23:32:48;15.50;;;10.50;;
57321;SDS011;43159;51.006;18.224;2023-08-20T23:42:34;23.90;;;12.00;;
57321;SDS011;43159;51.006;18.224;2023-08-20T23:52:24;16.70;;;11.00;;
